createdAt,value
2018-08-03T00:00:26.525Z,58.27
2018-08-03T00:02:19.348Z,58.27
2018-08-03T00:03:19.320Z,58.65
2018-08-03T00:05:12.235Z,59.23
2018-08-03T00:06:12.215Z,58.85
2018-08-03T00:08:05.031Z,58.85
2018-08-03T00:09:05.011Z,58.85
2018-08-03T00:10:57.825Z,59.21
2018-08-03T00:11:57.789Z,59.33
2018-08-03T00:13:50.618Z,59.43
2018-08-03T00:14:50.583Z,59.11
2018-08-03T00:16:43.396Z,59.50
2018-08-03T00:17:43.364Z,59.31
2018-08-03T00:19:36.199Z,59.50
2018-08-03T00:20:36.154Z,59.31
2018-08-03T00:22:28.974Z,59.50
2018-08-03T00:23:28.942Z,59.59
2018-08-03T00:25:21.785Z,60.17
2018-08-03T00:26:21.732Z,59.89
2018-08-03T00:28:14.569Z,60.37
2018-08-03T00:29:14.534Z,60.57
2018-08-03T00:31:07.360Z,60.17
2018-08-03T00:32:07.308Z,60.47
2018-08-03T00:34:00.154Z,60.17
2018-08-03T00:35:00.104Z,60.75
2018-08-03T00:36:52.911Z,60.47
2018-08-03T00:37:52.890Z,60.95
2018-08-03T00:39:45.731Z,61.05
2018-08-03T00:40:45.680Z,60.95
2018-08-03T00:42:38.519Z,60.75
2018-08-03T00:43:38.470Z,61.05
2018-08-03T00:45:31.290Z,61.05
2018-08-03T00:46:31.263Z,61.05
2018-08-03T00:48:24.091Z,61.92
2018-08-03T00:49:24.048Z,61.60
2018-08-03T00:51:17.875Z,61.60
2018-08-03T00:52:17.830Z,61.40
2018-08-03T00:54:10.662Z,61.60
2018-08-03T00:55:10.628Z,61.60
2018-08-03T00:57:03.484Z,62.18
2018-08-03T00:58:03.435Z,62.08
2018-08-03T00:59:56.255Z,62.18
2018-08-03T01:00:56.226Z,62.08
2018-08-03T01:02:49.065Z,62.37
2018-08-03T01:03:49.015Z,62.18
2018-08-03T01:05:41.837Z,62.18
2018-08-03T01:06:41.814Z,62.27
2018-08-03T01:08:34.641Z,62.18
2018-08-03T01:09:34.590Z,61.98
2018-08-03T01:11:27.426Z,62.95
2018-08-03T01:12:27.387Z,62.47
2018-08-03T01:14:20.215Z,62.95
2018-08-03T01:15:20.167Z,62.56
2018-08-03T01:17:12.998Z,62.73
2018-08-03T01:18:12.967Z,62.95
2018-08-03T01:20:05.769Z,62.92
2018-08-03T01:21:05.751Z,62.92
2018-08-03T01:22:58.572Z,63.50
2018-08-03T01:23:58.526Z,63.50
2018-08-03T01:25:51.342Z,63.50
2018-08-03T01:26:51.321Z,63.79
2018-08-03T01:28:44.156Z,63.79
2018-08-03T01:29:44.107Z,63.95
2018-08-03T01:31:36.928Z,64.27
2018-08-03T01:32:36.893Z,64.63
2018-08-03T01:34:29.718Z,65.01
2018-08-03T01:35:29.676Z,65.11
2018-08-03T01:37:22.492Z,64.92
2018-08-03T01:38:22.462Z,65.59
2018-08-03T01:40:15.292Z,65.69
2018-08-03T01:41:15.254Z,65.40
2018-08-03T01:43:08.067Z,65.59
2018-08-03T01:44:08.053Z,65.50
2018-08-03T01:46:00.877Z,65.69
2018-08-03T01:47:00.835Z,65.88
2018-08-03T01:48:53.662Z,65.69
2018-08-03T01:49:53.677Z,65.95
2018-08-03T01:51:46.437Z,65.75
2018-08-03T01:52:46.429Z,65.75
2018-08-03T01:54:39.247Z,65.95
2018-08-03T01:55:39.202Z,65.95
2018-08-03T01:57:32.010Z,66.43
2018-08-03T01:58:31.982Z,66.72
2018-08-03T02:00:24.818Z,66.82
2018-08-03T02:01:24.774Z,66.82
2018-08-03T02:03:17.613Z,66.82
2018-08-03T02:04:17.566Z,67.20
2018-08-03T02:06:10.405Z,67.30
2018-08-03T02:07:10.354Z,67.20
2018-08-03T02:09:03.164Z,67.11
2018-08-03T02:10:03.120Z,67.94
2018-08-03T02:11:55.960Z,66.88
2018-08-03T02:12:55.919Z,67.94
2018-08-03T02:14:48.743Z,68.04
2018-08-03T02:15:48.694Z,67.94
2018-08-03T02:17:41.520Z,68.33
2018-08-03T02:18:41.484Z,68.13
2018-08-03T02:20:34.324Z,68.62
2018-08-03T02:21:34.270Z,68.62
2018-08-03T02:23:27.085Z,68.62
2018-08-03T02:24:27.058Z,69.00
2018-08-03T02:26:19.890Z,68.62
2018-08-03T02:27:19.850Z,68.71
2018-08-03T02:29:12.665Z,68.91
2018-08-03T02:30:12.641Z,68.62
2018-08-03T02:32:05.468Z,68.19
2018-08-03T02:33:05.432Z,68.97
2018-08-03T02:34:58.266Z,69.26
2018-08-03T02:35:58.205Z,69.16
2018-08-03T02:37:51.039Z,69.07
2018-08-03T02:38:51.013Z,68.97
2018-08-03T02:40:43.834Z,69.26
2018-08-03T02:41:43.799Z,69.16
2018-08-03T02:43:36.598Z,69.35
2018-08-03T02:44:36.574Z,69.35
2018-08-03T02:46:29.416Z,69.64
2018-08-03T02:47:29.380Z,70.22
2018-08-03T02:49:22.186Z,70.13
2018-08-03T02:50:22.151Z,70.19
2018-08-03T02:52:14.984Z,70.32
2018-08-03T02:53:14.941Z,70.70
2018-08-03T02:55:07.760Z,70.19
2018-08-03T02:56:07.735Z,70.76
2018-08-03T02:58:00.548Z,70.76
2018-08-03T02:59:00.512Z,71.25
2018-08-03T03:00:53.334Z,71.25
2018-08-03T03:01:53.295Z,71.44
2018-08-03T03:03:46.120Z,71.54
2018-08-03T03:04:46.095Z,71.44
2018-08-03T03:06:38.910Z,71.25
2018-08-03T03:07:38.865Z,71.64
2018-08-03T03:09:31.697Z,71.73
2018-08-03T03:10:31.651Z,71.54
2018-08-03T03:12:24.517Z,71.64
2018-08-03T03:13:24.446Z,71.64
2018-08-03T03:15:17.255Z,71.44
2018-08-03T03:16:17.227Z,71.73
2018-08-03T03:18:10.066Z,71.15
2018-08-03T03:19:10.007Z,71.92
2018-08-03T03:21:02.820Z,71.83
2018-08-03T03:22:02.791Z,71.64
2018-08-03T03:23:55.615Z,71.73
2018-08-03T03:24:55.577Z,71.64
2018-08-03T03:26:48.395Z,71.83
2018-08-03T03:27:48.353Z,71.83
2018-08-03T03:29:41.189Z,72.02
2018-08-03T03:30:41.151Z,72.37
2018-08-03T03:32:33.988Z,72.37
2018-08-03T03:33:33.975Z,72.47
2018-08-03T03:35:26.786Z,71.98
2018-08-03T03:36:26.743Z,71.89
2018-08-03T03:38:19.546Z,72.08
2018-08-03T03:39:19.523Z,72.18
2018-08-03T03:41:12.348Z,73.05
2018-08-03T03:42:12.313Z,72.95
2018-08-03T03:44:05.147Z,72.66
2018-08-03T03:45:05.102Z,72.37
2018-08-03T03:46:57.907Z,72.27
2018-08-03T03:47:57.882Z,72.37
2018-08-03T03:49:50.829Z,73.05
2018-08-03T03:50:50.661Z,73.24
2018-08-03T03:52:43.483Z,72.85
2018-08-03T03:53:43.447Z,73.05
2018-08-03T03:55:36.264Z,72.85
2018-08-03T03:56:36.236Z,73.24
2018-08-03T03:58:29.047Z,73.33
2018-08-03T03:59:29.010Z,73.24
2018-08-03T04:01:21.860Z,73.24
2018-08-03T04:02:21.798Z,73.24
2018-08-03T04:04:14.612Z,73.14
2018-08-03T04:05:14.597Z,73.33
2018-08-03T04:07:07.426Z,73.91
2018-08-03T04:08:07.377Z,73.24
2018-08-03T04:10:00.208Z,74.01
2018-08-03T04:11:00.297Z,73.91
2018-08-03T04:12:52.978Z,73.43
2018-08-03T04:13:52.949Z,73.82
2018-08-03T04:15:45.770Z,73.62
2018-08-03T04:16:45.723Z,73.62
2018-08-03T04:18:38.543Z,73.72
2018-08-03T04:19:38.613Z,74.01
2018-08-03T04:21:31.347Z,73.43
2018-08-03T04:22:31.299Z,74.20
2018-08-03T04:24:24.104Z,74.10
2018-08-03T04:25:24.091Z,73.43
2018-08-03T04:27:16.895Z,74.20
2018-08-03T04:28:16.859Z,73.68
2018-08-03T04:30:09.724Z,74.10
2018-08-03T04:31:09.658Z,73.49
2018-08-03T04:33:02.457Z,73.49
2018-08-03T04:34:02.434Z,74.07
2018-08-03T04:35:55.264Z,73.30
2018-08-03T04:36:55.216Z,74.16
2018-08-03T04:38:48.023Z,73.53
2018-08-03T04:39:47.993Z,73.33
2018-08-03T04:41:40.825Z,74.10
2018-08-03T04:42:40.778Z,74.16
2018-08-03T04:44:33.608Z,74.49
2018-08-03T04:45:33.560Z,74.01
2018-08-03T04:47:26.394Z,74.20
2018-08-03T04:48:26.359Z,74.49
2018-08-03T04:50:19.176Z,74.10
2018-08-03T04:51:19.140Z,74.01
2018-08-03T04:53:11.959Z,74.49
2018-08-03T04:54:11.914Z,74.30
2018-08-03T04:56:04.741Z,74.49
2018-08-03T04:57:04.707Z,74.49
2018-08-03T04:58:57.519Z,74.30
2018-08-03T04:59:57.488Z,73.62
2018-08-03T05:01:50.322Z,73.62
2018-08-03T05:02:50.262Z,73.62
2018-08-03T05:04:43.110Z,73.53
2018-08-03T05:05:43.061Z,73.53
2018-08-03T05:07:35.910Z,73.43
2018-08-03T05:08:35.854Z,73.62
2018-08-03T05:10:28.672Z,73.85
2018-08-03T05:11:28.636Z,74.30
2018-08-03T05:13:21.469Z,73.66
2018-08-03T05:14:21.415Z,73.47
2018-08-03T05:16:14.240Z,73.57
2018-08-03T05:17:14.222Z,73.18
2018-08-03T05:19:07.038Z,73.57
2018-08-03T05:20:06.987Z,73.47
2018-08-03T05:21:59.828Z,73.95
2018-08-03T05:22:59.789Z,73.66
2018-08-03T05:24:52.607Z,73.66
2018-08-03T05:25:52.570Z,73.75
2018-08-03T05:27:45.382Z,73.95
2018-08-03T05:28:45.351Z,73.66
2018-08-03T05:30:38.180Z,74.05
2018-08-03T05:31:38.133Z,74.05
2018-08-03T05:33:30.957Z,74.14
2018-08-03T05:34:30.926Z,73.95
2018-08-03T05:36:23.804Z,73.95
2018-08-03T05:37:23.702Z,73.85
2018-08-03T05:39:16.521Z,74.05
2018-08-03T05:40:16.477Z,73.75
2018-08-03T05:42:09.300Z,73.95
2018-08-03T05:43:09.258Z,73.66
2018-08-03T05:45:02.112Z,74.08
2018-08-03T05:46:02.047Z,73.89
2018-08-03T05:47:54.878Z,73.95
2018-08-03T05:48:54.838Z,73.89
2018-08-03T05:50:47.675Z,74.05
2018-08-03T05:51:47.631Z,74.14
2018-08-03T05:53:40.463Z,74.27
2018-08-03T05:54:40.432Z,74.08
2018-08-03T05:56:33.258Z,73.99
2018-08-03T05:57:33.216Z,73.21
2018-08-03T05:59:26.046Z,73.50
2018-08-03T06:00:25.997Z,73.02
2018-08-03T06:02:18.819Z,72.83
2018-08-03T06:03:18.787Z,73.50
2018-08-03T06:05:11.611Z,72.96
2018-08-03T06:06:11.582Z,72.77
2018-08-03T06:08:04.434Z,72.86
2018-08-03T06:09:04.372Z,73.15
2018-08-03T06:10:57.223Z,72.19
2018-08-03T06:11:57.171Z,72.19
2018-08-03T06:13:50.002Z,72.09
2018-08-03T06:14:49.961Z,71.61
2018-08-03T06:16:42.772Z,71.55
2018-08-03T06:17:42.738Z,71.55
2018-08-03T06:19:35.574Z,71.45
2018-08-03T06:20:35.568Z,71.55
2018-08-03T06:22:28.337Z,70.87
2018-08-03T06:23:28.307Z,70.78
2018-08-03T06:25:21.147Z,70.42
2018-08-03T06:26:21.099Z,70.72
2018-08-03T06:28:13.937Z,70.04
2018-08-03T06:29:13.893Z,70.04
2018-08-03T06:31:06.735Z,69.26
2018-08-03T06:32:06.684Z,69.36
2018-08-03T06:33:59.507Z,69.26
2018-08-03T06:34:59.477Z,69.65
2018-08-03T06:36:52.318Z,69.56
2018-08-03T06:37:52.262Z,69.68
2018-08-03T06:39:45.599Z,68.91
2018-08-03T06:40:45.558Z,68.98
2018-08-03T06:42:38.378Z,69.10
2018-08-03T06:43:38.337Z,69.10
2018-08-03T06:45:31.163Z,69.20
2018-08-03T06:46:31.134Z,68.14
2018-08-03T06:48:24.018Z,68.91
2018-08-03T06:49:23.918Z,68.91
2018-08-03T06:51:16.749Z,68.43
2018-08-03T06:52:16.706Z,68.82
2018-08-03T06:54:10.041Z,68.14
2018-08-03T06:55:10.016Z,68.33
2018-08-03T06:57:02.809Z,68.17
2018-08-03T06:58:02.784Z,67.17
2018-08-03T06:59:56.103Z,67.30
2018-08-03T07:00:56.061Z,67.11
2018-08-03T07:02:48.930Z,67.21
2018-08-03T07:03:48.854Z,67.11
2018-08-03T07:05:41.690Z,66.91
2018-08-03T07:06:41.660Z,66.91
2018-08-03T07:08:34.501Z,66.37
2018-08-03T07:09:34.436Z,66.47
2018-08-03T07:11:27.260Z,66.37
2018-08-03T07:12:27.232Z,66.08
2018-08-03T07:14:20.059Z,65.88
2018-08-03T07:15:20.016Z,66.08
2018-08-03T07:17:12.831Z,65.30
2018-08-03T07:18:12.805Z,66.37
2018-08-03T07:20:06.204Z,65.50
2018-08-03T07:21:06.107Z,65.30
2018-08-03T07:22:59.410Z,65.34
2018-08-03T07:23:59.367Z,65.72
2018-08-03T07:25:52.231Z,65.24
2018-08-03T07:26:52.160Z,65.14
2018-08-03T07:28:44.997Z,64.66
2018-08-03T07:29:44.945Z,64.98
2018-08-03T07:31:37.815Z,64.47
2018-08-03T07:32:37.735Z,63.92
2018-08-03T07:34:30.573Z,63.43
2018-08-03T07:35:30.535Z,63.14
2018-08-03T07:37:23.367Z,63.04
2018-08-03T07:38:23.316Z,63.34
2018-08-03T07:40:16.137Z,62.95
2018-08-03T07:41:16.107Z,63.04
2018-08-03T07:43:08.995Z,62.56
2018-08-03T07:44:08.900Z,62.49
2018-08-03T07:46:01.737Z,62.40
2018-08-03T07:47:01.705Z,62.20
2018-08-03T07:48:54.522Z,61.91
2018-08-03T07:49:54.502Z,62.01
2018-08-03T07:51:47.820Z,61.26
2018-08-03T07:52:47.787Z,61.07
2018-08-03T07:54:40.597Z,60.58
2018-08-03T07:55:40.573Z,60.58
2018-08-03T07:57:33.427Z,60.20
2018-08-03T07:58:33.375Z,60.20
2018-08-03T08:00:26.177Z,59.52
2018-08-03T08:01:26.146Z,59.55
2018-08-03T08:03:19.027Z,59.55
2018-08-03T08:04:18.978Z,59.36
2018-08-03T08:06:11.784Z,59.45
2018-08-03T08:07:11.741Z,59.36
2018-08-03T08:09:05.067Z,58.90
2018-08-03T08:10:05.026Z,58.22
2018-08-03T08:11:57.838Z,58.03
2018-08-03T08:12:57.816Z,58.41
2018-08-03T08:14:50.639Z,57.44
2018-08-03T08:15:50.613Z,57.83
2018-08-03T08:17:43.438Z,57.44
2018-08-03T08:18:43.400Z,56.79
2018-08-03T08:20:36.222Z,56.79
2018-08-03T08:21:36.197Z,56.89
2018-08-03T08:23:29.040Z,57.08
2018-08-03T08:24:28.988Z,57.18
2018-08-03T08:26:21.822Z,56.40
2018-08-03T08:27:21.786Z,57.18
2018-08-03T08:29:14.622Z,56.24
2018-08-03T08:30:14.586Z,56.24
2018-08-03T08:32:07.406Z,55.65
2018-08-03T08:33:07.378Z,56.04
2018-08-03T08:35:00.254Z,54.97
2018-08-03T08:36:00.192Z,55.94
2018-08-03T08:37:52.998Z,55.29
2018-08-03T08:38:52.968Z,55.10
2018-08-03T08:40:46.310Z,55.39
2018-08-03T08:41:46.275Z,54.42
2018-08-03T08:43:39.665Z,54.52
2018-08-03T08:44:39.567Z,53.74
2018-08-03T08:46:32.389Z,53.35
2018-08-03T08:47:32.369Z,53.83
2018-08-03T08:49:25.708Z,53.38
2018-08-03T08:50:25.704Z,53.28
2018-08-03T08:52:18.507Z,54.25
2018-08-03T08:53:18.496Z,54.83
2018-08-03T08:55:11.292Z,53.50
2018-08-03T08:56:11.257Z,53.30
2018-08-03T08:58:04.569Z,53.20
2018-08-03T08:59:04.547Z,52.72
2018-08-03T09:00:57.929Z,52.45
2018-08-03T09:01:57.841Z,52.36
2018-08-03T09:03:51.159Z,52.36
2018-08-03T09:04:51.140Z,52.45
2018-08-03T09:06:44.008Z,52.94
2018-08-03T09:07:43.976Z,51.39
2018-08-03T09:09:36.764Z,51.41
2018-08-03T09:10:36.754Z,51.39
2018-08-03T09:12:30.094Z,51.80
2018-08-03T09:13:30.042Z,51.61
2018-08-03T09:15:23.356Z,51.51
2018-08-03T09:16:23.325Z,51.12
2018-08-03T09:18:16.181Z,50.92
2018-08-03T09:19:16.135Z,50.63
2018-08-03T09:21:08.962Z,50.65
2018-08-03T09:22:08.988Z,50.65
2018-08-03T09:24:01.770Z,50.16
2018-08-03T09:25:01.729Z,50.36
2018-08-03T09:26:54.570Z,51.26
2018-08-03T09:27:54.525Z,50.09
2018-08-03T09:29:47.864Z,49.99
2018-08-03T09:30:47.832Z,49.61
2018-08-03T09:32:40.667Z,49.34
2018-08-03T09:33:40.622Z,49.05
2018-08-03T09:35:33.486Z,49.34
2018-08-03T09:36:33.473Z,49.34
2018-08-03T09:38:26.281Z,49.24
2018-08-03T09:39:26.246Z,49.44
2018-08-03T09:41:19.082Z,49.66
2018-08-03T09:42:19.050Z,49.37
2018-08-03T09:44:11.897Z,48.97
2018-08-03T09:45:11.846Z,49.29
2018-08-03T09:47:04.692Z,48.22
2018-08-03T09:48:04.649Z,47.34
2018-08-03T09:49:57.481Z,46.78
2018-08-03T09:50:57.451Z,46.17
2018-08-03T09:52:50.282Z,46.17
2018-08-03T09:53:50.246Z,46.56
2018-08-03T09:55:43.072Z,47.07
2018-08-03T09:56:43.054Z,46.75
2018-08-03T09:58:35.886Z,46.58
2018-08-03T09:59:35.855Z,46.58
2018-08-03T10:01:29.162Z,46.78
2018-08-03T10:02:29.148Z,46.11
2018-08-03T10:04:21.996Z,46.53
2018-08-03T10:05:21.946Z,45.26
2018-08-03T10:07:14.789Z,43.54
2018-08-03T10:08:14.751Z,42.19
2018-08-03T10:10:07.577Z,40.74
2018-08-03T10:11:07.557Z,40.47
2018-08-03T10:13:00.412Z,38.46
2018-08-03T10:14:00.368Z,38.48
2018-08-03T10:15:53.203Z,37.44
2018-08-03T10:16:53.189Z,35.88
2018-08-03T10:18:46.031Z,35.92
2018-08-03T10:19:45.997Z,34.46
2018-08-03T10:21:38.844Z,33.79
2018-08-03T10:22:38.816Z,33.01
2018-08-03T10:24:31.678Z,32.95
2018-08-03T10:25:31.648Z,31.68
2018-08-03T10:27:24.483Z,30.88
2018-08-03T10:28:24.462Z,30.98
2018-08-03T10:30:17.317Z,31.65
2018-08-03T10:31:17.288Z,31.76
2018-08-03T10:33:10.137Z,30.92
2018-08-03T10:34:10.102Z,29.83
2018-08-03T10:36:02.973Z,28.86
2018-08-03T10:37:02.951Z,28.78
2018-08-03T10:38:55.788Z,27.81
2018-08-03T10:39:55.761Z,27.12
2018-08-03T10:41:49.129Z,27.67
2018-08-03T10:42:49.197Z,27.49
2018-08-03T10:44:42.054Z,27.42
2018-08-03T10:45:41.924Z,27.32
2018-08-03T10:47:34.778Z,26.45
2018-08-03T10:48:34.809Z,26.15
2018-08-03T10:50:27.652Z,27.40
2018-08-03T10:51:27.588Z,27.70
2018-08-03T10:53:20.433Z,26.74
2018-08-03T10:54:20.434Z,26.74
2018-08-03T10:56:13.263Z,25.97
2018-08-03T10:57:13.243Z,26.06
2018-08-03T10:59:06.588Z,26.26
2018-08-03T11:00:06.576Z,26.06
2018-08-03T11:01:59.430Z,26.71
2018-08-03T11:02:59.414Z,27.23
2018-08-03T11:04:52.247Z,26.27
2018-08-03T11:05:52.232Z,25.67
2018-08-03T11:07:45.090Z,25.60
2018-08-03T11:08:45.065Z,24.91
2018-08-03T11:10:38.434Z,24.12
2018-08-03T11:11:38.405Z,24.32
2018-08-03T11:13:31.309Z,22.84
2018-08-03T11:14:31.239Z,23.85
2018-08-03T11:16:24.115Z,24.24
2018-08-03T11:17:24.073Z,23.26
2018-08-03T11:19:16.943Z,22.86
2018-08-03T11:20:16.905Z,23.37
2018-08-03T11:22:09.745Z,22.78
2018-08-03T11:23:09.742Z,22.70
2018-08-03T11:25:02.604Z,22.30
2018-08-03T11:26:02.575Z,21.90
2018-08-03T11:27:55.435Z,21.69
2018-08-03T11:28:55.418Z,22.29
2018-08-03T11:30:48.287Z,22.00
2018-08-03T11:31:48.256Z,23.00
2018-08-03T11:33:41.584Z,22.21
2018-08-03T11:34:41.579Z,21.22
2018-08-03T11:36:34.932Z,21.22
2018-08-03T11:37:34.905Z,21.03
2018-08-03T11:39:27.750Z,20.81
2018-08-03T11:40:27.739Z,21.30
2018-08-03T11:42:20.639Z,21.01
2018-08-03T11:43:20.565Z,21.22
2018-08-03T11:45:13.415Z,21.44
2018-08-03T11:46:13.397Z,20.94
2018-08-03T11:48:06.264Z,20.92
2018-08-03T11:49:06.235Z,20.94
2018-08-03T11:50:59.081Z,20.14
2018-08-03T11:51:59.072Z,19.94
2018-08-03T11:53:51.933Z,20.42
2018-08-03T11:54:51.900Z,21.20
2018-08-03T11:56:44.756Z,22.37
2018-08-03T11:57:44.734Z,21.28
2018-08-03T11:59:37.608Z,22.25
2018-08-03T12:00:37.561Z,21.56
2018-08-03T12:02:30.921Z,22.07
2018-08-03T12:03:30.897Z,21.67
2018-08-03T12:05:24.244Z,21.68
2018-08-03T12:06:24.246Z,21.30
2018-08-03T12:08:17.082Z,21.08
2018-08-03T12:09:17.046Z,21.30
2018-08-03T12:11:10.410Z,20.71
2018-08-03T12:12:10.371Z,21.22
2018-08-03T12:14:03.226Z,19.93
2018-08-03T12:15:03.207Z,19.73
2018-08-03T12:16:56.061Z,20.04
2018-08-03T12:17:56.084Z,19.54
2018-08-03T12:19:49.393Z,20.03
2018-08-03T12:20:49.363Z,20.04
2018-08-03T12:22:42.227Z,19.65
2018-08-03T12:23:42.223Z,19.56
2018-08-03T12:25:35.057Z,19.15
2018-08-03T12:26:35.038Z,19.75
2018-08-03T12:28:27.883Z,19.56
2018-08-03T12:29:27.867Z,19.47
2018-08-03T12:31:20.772Z,18.58
2018-08-03T12:32:20.686Z,18.48
2018-08-03T12:34:13.550Z,18.55
2018-08-03T12:35:13.978Z,19.15
2018-08-03T12:37:06.427Z,18.95
2018-08-03T12:38:06.383Z,19.17
2018-08-03T12:39:59.713Z,19.12
2018-08-03T12:40:59.703Z,19.12
2018-08-03T12:42:53.028Z,20.30
2018-08-03T12:43:53.017Z,19.32
2018-08-03T12:45:45.862Z,18.33
2018-08-03T12:46:45.844Z,19.65
2018-08-03T12:48:38.704Z,18.56
2018-08-03T12:49:38.658Z,18.25
2018-08-03T12:51:32.068Z,18.25
2018-08-03T12:52:32.014Z,18.23
2018-08-03T12:54:25.374Z,19.22
2018-08-03T12:55:25.334Z,18.02
2018-08-03T12:57:18.668Z,18.43
2018-08-03T12:58:18.663Z,18.63
2018-08-03T13:00:11.525Z,18.82
2018-08-03T13:01:11.499Z,18.43
2018-08-03T13:03:04.347Z,19.12
2018-08-03T13:04:04.319Z,19.42
2018-08-03T13:05:57.673Z,19.22
2018-08-03T13:06:57.653Z,19.33
2018-08-03T13:08:50.492Z,18.52
2018-08-03T13:09:50.477Z,19.23
2018-08-03T13:11:43.352Z,18.64
2018-08-03T13:12:43.338Z,18.73
2018-08-03T13:14:36.648Z,18.82
2018-08-03T13:15:36.640Z,18.41
2018-08-03T13:17:29.494Z,18.80
2018-08-03T13:18:29.472Z,18.41
2018-08-03T13:20:22.329Z,18.32
2018-08-03T13:21:22.328Z,17.53
2018-08-03T13:23:15.143Z,18.04
2018-08-03T13:24:15.129Z,17.55
2018-08-03T13:26:07.990Z,16.85
2018-08-03T13:27:07.956Z,17.54
2018-08-03T13:29:01.305Z,17.33
2018-08-03T13:30:01.291Z,17.53
2018-08-03T13:31:54.146Z,17.54
2018-08-03T13:32:54.105Z,18.32
2018-08-03T13:34:46.961Z,18.13
2018-08-03T13:35:46.960Z,18.44
2018-08-03T13:37:39.813Z,17.46
2018-08-03T13:38:39.786Z,18.45
2018-08-03T13:40:32.636Z,18.35
2018-08-03T13:41:32.610Z,18.65
2018-08-03T13:43:25.468Z,17.66
2018-08-03T13:44:25.445Z,17.47
2018-08-03T13:46:18.315Z,18.36
2018-08-03T13:47:18.267Z,18.06
2018-08-03T13:49:11.110Z,17.77
2018-08-03T13:50:11.110Z,16.86
2018-08-03T13:52:03.964Z,17.85
2018-08-03T13:53:03.945Z,18.25
2018-08-03T13:54:56.795Z,17.57
2018-08-03T13:55:56.771Z,17.47
2018-08-03T13:57:49.677Z,17.55
2018-08-03T13:58:49.608Z,18.04
2018-08-03T14:00:42.475Z,19.39
2018-08-03T14:01:42.451Z,19.31
2018-08-03T14:03:35.796Z,19.12
2018-08-03T14:04:35.787Z,18.62
2018-08-03T14:06:28.639Z,19.10
2018-08-03T14:07:28.612Z,18.99
2018-08-03T14:09:21.482Z,19.50
2018-08-03T14:10:21.442Z,18.71
2018-08-03T14:12:14.308Z,18.31
2018-08-03T14:13:14.281Z,19.12
2018-08-03T14:15:07.129Z,18.62
2018-08-03T14:16:07.095Z,18.33
2018-08-03T14:17:59.966Z,18.15
2018-08-03T14:18:59.931Z,17.76
2018-08-03T14:20:52.773Z,16.96
2018-08-03T14:21:52.765Z,17.85
2018-08-03T14:23:46.123Z,18.54
2018-08-03T14:24:46.092Z,18.33
2018-08-03T14:26:38.927Z,17.74
2018-08-03T14:27:38.911Z,17.64
2018-08-03T14:29:31.796Z,18.62
2018-08-03T14:30:31.752Z,18.62
2018-08-03T14:32:24.598Z,18.41
2018-08-03T14:33:24.572Z,18.71
2018-08-03T14:35:17.436Z,18.62
2018-08-03T14:36:17.416Z,18.41
2018-08-03T14:38:10.336Z,18.51
2018-08-03T14:39:10.247Z,18.71
2018-08-03T14:41:03.618Z,19.49
2018-08-03T14:42:03.603Z,19.39
2018-08-03T14:43:57.916Z,19.40
2018-08-03T14:44:57.901Z,19.21
2018-08-03T14:46:50.744Z,18.52
2018-08-03T14:47:50.723Z,18.32
2018-08-03T14:49:43.576Z,17.93
2018-08-03T14:50:43.544Z,18.52
2018-08-03T14:52:36.422Z,18.82
2018-08-03T14:53:36.403Z,17.72
2018-08-03T14:55:29.321Z,18.23
2018-08-03T14:56:29.234Z,18.32
2018-08-03T14:58:22.069Z,18.20
2018-08-03T14:59:22.052Z,18.29
2018-08-03T15:01:14.911Z,19.08
2018-08-03T15:02:14.893Z,18.98
2018-08-03T15:04:07.729Z,18.58
2018-08-03T15:05:07.729Z,18.59
2018-08-03T15:07:00.569Z,18.80
2018-08-03T15:08:00.555Z,18.60
2018-08-03T15:09:53.389Z,18.71
2018-08-03T15:10:53.368Z,18.51
2018-08-03T15:12:46.228Z,18.51
2018-08-03T15:13:46.182Z,18.31
2018-08-03T15:15:39.051Z,18.59
2018-08-03T15:16:39.028Z,18.40
2018-08-03T15:18:31.874Z,18.80
2018-08-03T15:19:31.842Z,18.70
2018-08-03T15:21:24.752Z,18.80
2018-08-03T15:22:24.669Z,18.49
2018-08-03T15:24:17.534Z,19.85
2018-08-03T15:25:17.483Z,19.84
2018-08-03T15:27:10.364Z,21.22
2018-08-03T15:28:10.333Z,21.03
2018-08-03T15:30:03.162Z,19.95
2018-08-03T15:31:03.158Z,19.96
2018-08-03T15:32:56.003Z,19.67
2018-08-03T15:33:55.984Z,20.57
2018-08-03T15:35:49.324Z,19.56
2018-08-03T15:36:49.328Z,20.24
2018-08-03T15:38:42.164Z,20.92
2018-08-03T15:39:42.124Z,21.20
2018-08-03T15:41:34.982Z,21.61
2018-08-03T15:42:34.954Z,21.21
2018-08-03T15:44:27.821Z,21.21
2018-08-03T15:45:27.777Z,21.11
2018-08-03T15:47:20.661Z,21.60
2018-08-03T15:48:20.604Z,21.31
2018-08-03T15:50:13.466Z,21.21
2018-08-03T15:51:13.459Z,21.11
2018-08-03T15:53:06.296Z,21.11
2018-08-03T15:54:06.264Z,21.01
2018-08-03T15:55:59.141Z,21.11
2018-08-03T15:56:59.089Z,20.72
2018-08-03T15:58:51.941Z,20.73
2018-08-03T15:59:51.911Z,20.72
2018-08-03T16:01:44.779Z,21.98
2018-08-03T16:02:44.750Z,22.55
2018-08-03T16:04:37.620Z,22.56
2018-08-03T16:05:37.566Z,22.58
2018-08-03T16:07:30.907Z,22.00
2018-08-03T16:08:30.886Z,21.60
2018-08-03T16:10:23.746Z,21.58
2018-08-03T16:11:23.716Z,22.37
2018-08-03T16:13:17.055Z,22.18
2018-08-03T16:14:17.027Z,21.97
2018-08-03T16:16:09.991Z,21.88
2018-08-03T16:17:09.862Z,22.17
2018-08-03T16:19:02.708Z,22.45
2018-08-03T16:20:02.691Z,22.94
2018-08-03T16:21:55.546Z,23.72
2018-08-03T16:22:55.509Z,23.63
2018-08-03T16:24:48.367Z,22.66
2018-08-03T16:25:48.343Z,22.56
2018-08-03T16:27:41.176Z,22.28
2018-08-03T16:28:41.157Z,21.48
2018-08-03T16:30:34.070Z,22.45
2018-08-03T16:31:33.981Z,22.75
2018-08-03T16:33:26.829Z,22.66
2018-08-03T16:34:26.797Z,22.94
2018-08-03T16:36:20.153Z,23.32
2018-08-03T16:37:20.120Z,23.72
2018-08-03T16:39:12.957Z,23.62
2018-08-03T16:40:12.936Z,24.20
2018-08-03T16:42:05.797Z,24.10
2018-08-03T16:43:05.756Z,24.20
2018-08-03T16:44:58.626Z,23.61
2018-08-03T16:45:58.591Z,23.81
2018-08-03T16:47:51.422Z,23.91
2018-08-03T16:48:51.396Z,23.72
2018-08-03T16:50:44.252Z,24.20
2018-08-03T16:51:44.216Z,23.80
2018-08-03T16:53:37.547Z,24.88
2018-08-03T16:54:37.543Z,24.79
2018-08-03T16:56:30.383Z,24.60
2018-08-03T16:57:30.358Z,24.88
2018-08-03T16:59:23.203Z,24.68
2018-08-03T17:00:23.193Z,24.88
2018-08-03T17:02:16.055Z,24.97
2018-08-03T17:03:16.000Z,25.55
2018-08-03T17:05:08.858Z,25.26
2018-08-03T17:06:08.828Z,25.15
2018-08-03T17:08:01.701Z,26.23
2018-08-03T17:09:01.638Z,25.82
2018-08-03T17:10:54.473Z,25.92
2018-08-03T17:11:54.454Z,26.12
2018-08-03T17:13:47.314Z,26.21
2018-08-03T17:14:47.283Z,25.82
2018-08-03T17:16:40.127Z,25.92
2018-08-03T17:17:40.082Z,26.10
2018-08-03T17:19:33.431Z,26.40
2018-08-03T17:20:33.429Z,26.68
2018-08-03T17:22:26.257Z,26.50
2018-08-03T17:23:26.225Z,26.59
2018-08-03T17:25:19.052Z,26.59
2018-08-03T17:26:19.042Z,26.58
2018-08-03T17:28:11.907Z,26.78
2018-08-03T17:29:11.847Z,26.78
2018-08-03T17:31:04.704Z,26.48
2018-08-03T17:32:04.667Z,26.59
2018-08-03T17:33:57.518Z,26.67
2018-08-03T17:34:57.483Z,26.97
2018-08-03T17:36:50.344Z,26.95
2018-08-03T17:37:50.280Z,27.34
2018-08-03T17:39:43.137Z,27.14
2018-08-03T17:40:43.085Z,27.62
2018-08-03T17:42:36.038Z,27.72
2018-08-03T17:43:35.913Z,27.82
2018-08-03T17:45:29.304Z,27.71
2018-08-03T17:46:29.247Z,27.91
2018-08-03T17:48:22.069Z,27.91
2018-08-03T17:49:22.045Z,28.11
2018-08-03T17:51:14.870Z,28.39
2018-08-03T17:52:14.856Z,28.78
2018-08-03T17:54:07.695Z,28.68
2018-08-03T17:55:07.658Z,28.88
2018-08-03T17:57:00.624Z,28.88
2018-08-03T17:58:00.473Z,28.88
2018-08-03T17:59:53.310Z,28.77
2018-08-03T18:00:53.275Z,29.06
2018-08-03T18:02:46.148Z,28.67
2018-08-03T18:03:46.101Z,28.77
2018-08-03T18:05:38.915Z,28.85
2018-08-03T18:06:38.892Z,29.14
2018-08-03T18:08:31.734Z,29.45
2018-08-03T18:09:31.746Z,29.35
2018-08-03T18:11:24.531Z,29.45
2018-08-03T18:12:24.514Z,29.73
2018-08-03T18:14:17.365Z,29.83
2018-08-03T18:15:17.313Z,29.83
2018-08-03T18:17:10.146Z,29.53
2018-08-03T18:18:10.121Z,29.34
2018-08-03T18:20:03.006Z,29.53
2018-08-03T18:21:02.925Z,29.93
2018-08-03T18:22:55.755Z,30.21
2018-08-03T18:23:55.732Z,30.42
2018-08-03T18:25:48.579Z,30.80
2018-08-03T18:26:48.545Z,30.70
2018-08-03T18:28:41.892Z,30.60
2018-08-03T18:29:41.858Z,30.52
2018-08-03T18:31:34.695Z,30.30
2018-08-03T18:32:34.660Z,30.90